Moline, Illinois
Current Conditions -  °F | °C
As of 7:52 PM on Sunday 23 Nov 2014 (Local Time) from KMLI Reporting Station
Haze Haze  
Wind Chill: 50°   Ceiling: 300
Heat Index: 50°   Visibility: 0.75mi
Dew Point: 49°   Wind: 3mph
Humidity: 96%   Direction: 100°E
Pressure: 29.23"   Gusts: NA
Location:  41.49°N, 90.49°W
Report Text: KMLI 240152Z 10003KT 3/4SM R09/6000VP6000FT BR OVC003 10/09 A2923 RMK AO2 SLP897 P0001 T01000094 $
Loading
Personal Weather Stations






























Interactive Weather Map New forecast layout! Learn more

10-Day Weather Forecast

Advertisements
Track Severe Weather on mobile